Time;durP1;ratioP1;P1;durP2;ratioP2;P2;SDS_P1;SDS_P2;PMS_P1;PMS_P2;Temp;Humidity;BMP_temperature;BMP_pressure;BME280_temperature;BME280_humidity;BME280_pressure;Samples;Min_cycle;Max_cycle;Signal;HPM_P1;HPM_P2
2023/08/28 00:02:20;;;;;;;11.50;10.40;;;;;;;21.60;83.50;99626.41;103864;277;38818;-72
2023/08/28 00:04:57;;;;;;;10.90;9.80;;;;;;;21.56;83.64;99627.17;104050;277;38725;-73
2023/08/28 00:07:31;;;;;;;12.20;10.10;;;;;;;21.52;83.78;99626.30;103804;277;39862;-73
2023/08/28 00:10:05;;;;;;;11.60;9.90;;;;;;;21.53;83.91;99622.96;103810;279;38279;-74
2023/08/28 00:12:43;;;;;;;11.40;10.20;;;;;;;21.55;84.08;99625.63;104047;277;39374;-72
2023/08/28 00:15:17;;;;;;;12.40;10.60;;;;;;;21.58;84.11;99615.61;103932;277;174795;-72
2023/08/28 00:17:51;;;;;;;10.90;10.00;;;;;;;21.60;84.13;99621.39;104030;277;39724;-73
2023/08/28 00:20:25;;;;;;;10.40;9.30;;;;;;;21.61;83.96;99644.22;104003;277;38352;-75
2023/08/28 00:22:59;;;;;;;11.10;9.40;;;;;;;21.61;83.92;99657.17;104052;277;38246;-72
2023/08/28 00:25:33;;;;;;;10.50;9.50;;;;;;;21.63;83.78;99641.90;104028;277;38824;-73
2023/08/28 00:28:08;;;;;;;10.50;9.60;;;;;;;21.65;83.89;99639.05;104021;276;38306;-73
2023/08/28 00:30:42;;;;;;;11.00;9.90;;;;;;;21.66;83.77;99643.41;104003;277;39112;-73
2023/08/28 00:33:17;;;;;;;11.80;10.20;;;;;;;21.69;83.88;99665.94;104095;277;39043;-72
2023/08/28 00:35:57;;;;;;;11.80;10.60;;;;;;;21.71;83.84;99692.88;104033;277;38234;-71
2023/08/28 00:38:33;;;;;;;12.10;10.90;;;;;;;21.69;83.86;99701.88;104036;276;38821;-71
2023/08/28 00:41:06;;;;;;;10.70;9.60;;;;;;;21.69;83.84;99684.36;104020;277;38586;-72
2023/08/28 00:43:41;;;;;;;9.10;8.20;;;;;;;21.68;83.87;99676.47;104053;277;39730;-73
2023/08/28 00:46:15;;;;;;;9.60;6.50;;;;;;;21.66;83.56;99678.08;104004;277;39027;-73
2023/08/28 00:48:48;;;;;;;7.00;6.30;;;;;;;21.64;83.49;99690.07;103884;277;38756;-74
2023/08/28 00:51:22;;;;;;;6.00;5.40;;;;;;;21.65;83.08;99705.48;104048;277;38680;-73
2023/08/28 00:53:56;;;;;;;5.20;4.00;;;;;;;21.62;82.31;99719.40;104044;276;38477;-73
2023/08/28 00:56:30;;;;;;;4.70;4.20;;;;;;;21.55;81.92;99717.96;104044;275;39267;-73
2023/08/28 00:59:05;;;;;;;3.60;3.30;;;;;;;21.48;82.00;99711.14;104038;275;38795;-72
2023/08/28 01:01:39;;;;;;;4.30;3.10;;;;;;;21.40;82.00;99706.00;104048;276;38419;-73
2023/08/28 01:04:13;;;;;;;5.10;3.00;;;;;;;21.34;82.09;99710.34;104081;276;38719;-70
2023/08/28 01:06:52;;;;;;;3.40;2.60;;;;;;;21.26;82.22;99704.99;104048;276;38392;-71
2023/08/28 01:09:33;;;;;;;4.30;2.90;;;;;;;21.19;82.26;99711.36;104078;276;38265;-72
2023/08/28 01:12:14;;;;;;;3.70;2.70;;;;;;;21.14;82.41;99705.09;104064;276;38471;-72
2023/08/28 01:14:56;;;;;;;3.00;2.50;;;;;;;21.05;82.48;99714.23;104002;276;38806;-73
2023/08/28 01:17:30;;;;;;;5.20;3.00;;;;;;;20.95;82.84;99701.55;104074;276;38342;-73
2023/08/28 01:20:05;;;;;;;3.70;2.50;;;;;;;20.85;83.21;99685.21;104019;276;38822;-74
2023/08/28 01:22:43;;;;;;;4.70;2.90;;;;;;;20.78;83.72;99694.38;104060;275;39680;-73
2023/08/28 01:25:17;;;;;;;2.40;2.20;;;;;;;20.73;84.17;99702.52;104010;276;39430;-75
2023/08/28 01:27:51;;;;;;;3.30;2.50;;;;;;;20.69;84.43;99704.40;104064;264;38361;-74
2023/08/28 01:30:25;;;;;;;3.60;2.60;;;;;;;20.66;84.62;99711.11;104009;276;38278;-71
2023/08/28 01:32:59;;;;;;;2.50;2.30;;;;;;;20.64;84.93;99717.30;104030;276;38994;-72
2023/08/28 01:35:34;;;;;;;4.20;2.60;;;;;;;20.60;84.95;99727.55;103881;277;40355;-72
2023/08/28 01:38:20;;;;;;;4.90;2.60;;;;;;;20.56;85.26;99736.45;104029;276;38758;-73
2023/08/28 01:40:58;;;;;;;2.90;2.30;;;;;;;20.49;85.47;99729.92;103800;276;38822;-74
2023/08/28 01:43:35;;;;;;;2.60;2.30;;;;;;;20.44;85.59;99717.81;104064;275;38271;-71
2023/08/28 01:46:09;;;;;;;2.90;1.90;;;;;;;20.41;85.82;99717.95;104067;276;40128;-71
2023/08/28 01:48:52;;;;;;;2.20;1.90;;;;;;;20.40;86.16;99716.63;104061;276;38456;-71
2023/08/28 01:51:26;;;;;;;2.40;2.20;;;;;;;20.38;86.13;99712.18;104022;276;38799;-72
2023/08/28 01:54:00;;;;;;;2.80;2.00;;;;;;;20.34;86.13;99726.15;103894;276;38994;-73
2023/08/28 01:56:34;;;;;;;2.50;2.20;;;;;;;20.35;86.51;99729.92;104030;276;38544;-73
2023/08/28 01:59:08;;;;;;;2.20;1.90;;;;;;;20.37;86.66;99711.89;103766;276;174462;-70
2023/08/28 02:01:42;;;;;;;6.60;2.60;;;;;;;20.31;86.30;99714.70;104026;265;38698;-71
2023/08/28 02:04:16;;;;;;;2.20;1.90;;;;;;;20.27;86.71;99724.66;104052;275;38399;-73
2023/08/28 02:06:50;;;;;;;2.70;1.80;;;;;;;20.25;86.77;99740.39;104030;275;38224;-74
2023/08/28 02:09:23;;;;;;;3.40;2.00;;;;;;;20.21;86.73;99744.84;103982;275;174850;-73
2023/08/28 02:11:57;;;;;;;2.50;1.90;;;;;;;20.19;86.82;99743.60;103927;276;174855;-72
2023/08/28 02:14:31;;;;;;;2.80;1.90;;;;;;;20.17;87.02;99750.65;104059;275;39041;-71
2023/08/28 02:17:07;;;;;;;2.90;1.70;;;;;;;20.14;86.86;99757.02;104030;275;39761;-71
2023/08/28 02:19:41;;;;;;;4.50;2.00;;;;;;;20.11;86.98;99754.90;103881;278;38245;-69
2023/08/28 02:22:15;;;;;;;2.40;1.80;;;;;;;20.09;87.05;99758.27;103999;275;38591;-72
2023/08/28 02:24:50;;;;;;;2.40;2.20;;;;;;;20.05;87.07;99772.61;103996;276;38371;-72
2023/08/28 02:27:23;;;;;;;2.90;2.20;;;;;;;20.02;87.19;99769.52;104036;275;39629;-73
2023/08/28 02:29:57;;;;;;;3.30;2.20;;;;;;;20.00;87.26;99766.52;103990;274;38543;-73
2023/08/28 02:32:31;;;;;;;3.90;2.20;;;;;;;19.96;87.17;99781.58;104057;276;38449;-72
2023/08/28 02:35:05;;;;;;;3.30;1.90;;;;;;;19.91;87.28;99784.26;103910;276;175300;-73
2023/08/28 02:37:39;;;;;;;2.30;2.10;;;;;;;19.88;87.43;99782.06;104035;276;38604;-71
2023/08/28 02:40:14;;;;;;;3.10;2.50;;;;;;;19.88;87.56;99772.36;103921;275;177215;-71
2023/08/28 02:42:48;;;;;;;2.70;2.20;;;;;;;19.85;87.53;99761.98;104065;275;38811;-72
2023/08/28 02:45:21;;;;;;;2.50;2.20;;;;;;;19.79;87.58;99764.58;104053;275;38683;-72
2023/08/28 02:47:55;;;;;;;3.20;2.40;;;;;;;19.79;87.89;99764.28;104050;276;39470;-71
2023/08/28 02:50:29;;;;;;;3.50;2.60;;;;;;;19.73;87.69;99761.40;104001;276;38518;-70
2023/08/28 02:53:03;;;;;;;2.70;2.50;;;;;;;19.70;87.90;99766.30;104066;275;38381;-72
2023/08/28 02:55:42;;;;;;;4.30;2.80;;;;;;;19.68;87.90;99762.39;103914;276;174603;-72
2023/08/28 02:58:15;;;;;;;2.80;2.60;;;;;;;19.63;87.86;99763.34;104050;275;39460;-73
2023/08/28 03:00:50;;;;;;;2.80;2.40;;;;;;;19.58;87.76;99766.17;104042;275;38258;-73
2023/08/28 03:03:23;;;;;;;3.20;2.40;;;;;;;19.54;87.76;99769.92;104044;276;39416;-72
2023/08/28 03:05:58;;;;;;;3.90;2.50;;;;;;;19.48;87.68;99772.52;104027;275;38261;-72
2023/08/28 03:08:32;;;;;;;3.70;2.80;;;;;;;19.43;88.01;99771.34;104067;275;38703;-70
2023/08/28 03:11:06;;;;;;;2.60;2.40;;;;;;;19.39;87.96;99782.48;103988;275;39760;-71
2023/08/28 03:13:40;;;;;;;3.40;3.10;;;;;;;19.33;87.81;99794.35;104059;275;39419;-73
2023/08/28 03:16:14;;;;;;;3.30;3.00;;;;;;;19.26;87.96;99802.86;104003;275;39538;-71
2023/08/28 03:18:48;;;;;;;3.40;3.10;;;;;;;19.22;88.19;99805.70;104025;275;39387;-70
2023/08/28 03:21:22;;;;;;;3.20;2.90;;;;;;;19.20;88.40;99802.99;104019;276;38388;-72
2023/08/28 03:23:56;;;;;;;3.50;3.10;;;;;;;19.17;88.41;99806.45;104095;275;39546;-74
2023/08/28 03:26:30;;;;;;;4.20;3.80;;;;;;;19.11;88.38;99812.76;104029;276;38834;-74
2023/08/28 03:29:05;;;;;;;5.80;3.80;;;;;;;19.07;88.56;99817.30;103894;276;38169;-71
2023/08/28 03:31:39;;;;;;;4.40;4.00;;;;;;;19.05;88.77;99829.02;103992;276;38779;-72
2023/08/28 03:34:12;;;;;;;4.30;3.90;;;;;;;19.02;88.79;99831.20;104103;276;38405;-71
2023/08/28 03:36:46;;;;;;;4.30;3.50;;;;;;;18.98;88.99;99824.06;104028;275;39342;-70
2023/08/28 03:39:20;;;;;;;5.50;4.00;;;;;;;18.94;88.85;99815.20;104096;275;38631;-71
2023/08/28 03:41:54;;;;;;;3.60;3.20;;;;;;;18.91;89.01;99809.64;104070;265;38610;-72
2023/08/28 03:44:28;;;;;;;4.20;3.40;;;;;;;18.89;89.19;99808.17;104055;275;39594;-73
2023/08/28 03:47:02;;;;;;;4.90;4.40;;;;;;;18.89;89.40;99809.59;104024;275;38237;-73
2023/08/28 03:49:39;;;;;;;4.20;3.60;;;;;;;18.86;89.24;99815.40;104046;275;39475;-74
2023/08/28 03:52:14;;;;;;;4.40;3.60;;;;;;;18.79;89.19;99821.91;104070;275;39702;-72
2023/08/28 03:54:47;;;;;;;3.90;3.50;;;;;;;18.76;89.48;99814.89;104013;275;38927;-71
2023/08/28 03:57:23;;;;;;;4.40;4.00;;;;;;;18.75;89.58;99816.10;104061;276;38803;-72
2023/08/28 03:59:57;;;;;;;5.00;3.90;;;;;;;18.71;89.62;99825.58;104003;275;38748;-72
2023/08/28 04:02:31;;;;;;;4.50;4.10;;;;;;;18.71;90.16;99825.39;104067;275;38852;-73
2023/08/28 04:05:06;;;;;;;5.40;4.60;;;;;;;18.73;90.45;99823.98;104061;276;38461;-72
2023/08/28 04:07:40;;;;;;;4.50;3.80;;;;;;;18.74;90.43;99817.35;104101;276;38264;-74
2023/08/28 04:10:14;;;;;;;4.50;4.10;;;;;;;18.77;90.57;99813.29;104005;275;39127;-73
2023/08/28 04:12:48;;;;;;;4.30;3.90;;;;;;;18.77;90.70;99817.16;103818;276;38534;-70
2023/08/28 04:15:22;;;;;;;4.90;3.90;;;;;;;18.80;91.04;99833.80;103971;276;39565;-72
2023/08/28 04:17:59;;;;;;;4.00;3.60;;;;;;;18.87;91.08;99849.41;104058;275;38499;-70
2023/08/28 04:20:33;;;;;;;4.30;3.90;;;;;;;18.93;91.22;99855.10;104045;276;39501;-71
2023/08/28 04:23:08;;;;;;;4.20;3.80;;;;;;;18.99;91.53;99852.65;104046;276;38411;-70
2023/08/28 04:25:42;;;;;;;5.00;3.90;;;;;;;19.04;91.52;99855.18;104022;276;38498;-71
2023/08/28 04:28:18;;;;;;;4.90;4.40;;;;;;;19.12;91.83;99857.29;103896;276;38278;-73
2023/08/28 04:30:52;;;;;;;4.30;3.90;;;;;;;19.22;92.15;99852.16;104076;276;38846;-74
2023/08/28 04:33:26;;;;;;;5.00;4.20;;;;;;;19.35;93.47;99836.23;104031;276;39474;-72
2023/08/28 04:35:59;;;;;;;5.30;4.00;;;;;;;19.58;94.73;99829.34;104023;276;38406;-70
2023/08/28 04:38:33;;;;;;;6.70;4.30;;;;;;;19.74;93.33;99839.36;103968;276;174911;-72
2023/08/28 04:41:07;;;;;;;4.30;3.70;;;;;;;19.81;92.22;99846.73;104031;276;38614;-73
2023/08/28 04:43:41;;;;;;;4.60;4.20;;;;;;;19.91;91.92;99847.52;103977;275;172211;-70
2023/08/28 04:46:15;;;;;;;3.90;3.50;;;;;;;20.00;91.55;99846.33;104055;275;38283;-70
2023/08/28 04:48:48;;;;;;;5.00;3.90;;;;;;;20.09;91.27;99842.02;104067;275;38427;-71
2023/08/28 04:51:22;;;;;;;4.90;3.90;;;;;;;20.24;90.81;99856.54;104009;276;39405;-72
2023/08/28 04:53:57;;;;;;;4.50;4.10;;;;;;;20.35;90.22;99872.70;104012;276;38527;-75
2023/08/28 04:56:31;;;;;;;4.90;3.90;;;;;;;20.39;89.66;99880.41;103994;276;39685;-74
2023/08/28 04:59:05;;;;;;;5.00;4.20;;;;;;;20.35;88.86;99884.10;104080;276;39531;-72
2023/08/28 05:01:40;;;;;;;4.40;3.80;;;;;;;20.29;88.57;99881.22;104067;275;38913;-70
2023/08/28 05:04:13;;;;;;;5.90;4.00;;;;;;;20.26;88.44;99888.00;103882;276;38436;-74
2023/08/28 05:06:48;;;;;;;5.60;3.80;;;;;;;20.26;88.34;99884.88;104009;276;38549;-73
2023/08/28 05:09:21;;;;;;;3.80;3.50;;;;;;;20.27;88.35;99878.55;104069;275;38969;-74
2023/08/28 05:11:55;;;;;;;4.10;3.50;;;;;;;20.28;88.11;99885.94;104025;275;39486;-71
2023/08/28 05:14:29;;;;;;;3.50;3.20;;;;;;;20.27;88.25;99891.67;104028;275;38543;-70
2023/08/28 05:17:05;;;;;;;4.70;3.50;;;;;;;20.25;87.88;99898.09;104041;276;39628;-72
2023/08/28 05:19:39;;;;;;;4.10;3.20;;;;;;;20.19;87.49;99901.08;104058;275;39265;-71
2023/08/28 05:22:13;;;;;;;3.80;2.80;;;;;;;20.14;87.44;99914.75;104075;275;38496;-72
2023/08/28 05:24:47;;;;;;;3.30;3.00;;;;;;;20.12;87.44;99928.77;103996;276;38561;-70
2023/08/28 05:27:21;;;;;;;3.90;3.30;;;;;;;20.08;87.25;99937.59;104061;276;39876;-70
2023/08/28 05:29:55;;;;;;;3.70;3.30;;;;;;;20.06;87.50;99947.48;104104;276;38794;-70
2023/08/28 05:32:29;;;;;;;3.30;3.00;;;;;;;20.02;87.23;99950.29;104089;275;39398;-71
2023/08/28 05:35:04;;;;;;;3.50;3.20;;;;;;;19.97;87.30;99940.98;104037;275;38280;-70
2023/08/28 05:37:38;;;;;;;3.50;2.90;;;;;;;19.96;87.42;99932.70;104051;276;38742;-70
2023/08/28 05:40:15;;;;;;;5.20;2.90;;;;;;;19.95;87.16;99930.70;104051;275;39945;-72
2023/08/28 05:42:49;;;;;;;2.90;2.70;;;;;;;19.94;87.24;99930.23;104078;276;39554;-71
2023/08/28 05:45:23;;;;;;;2.90;2.70;;;;;;;19.94;87.34;99918.59;104019;276;38779;-73
2023/08/28 05:47:57;;;;;;;6.70;2.70;;;;;;;19.93;87.29;99919.00;104071;276;39225;-72
2023/08/28 05:50:31;;;;;;;4.50;2.50;;;;;;;19.97;87.67;99926.30;103992;275;38523;-74
2023/08/28 05:53:05;;;;;;;4.10;2.40;;;;;;;20.01;87.57;99930.39;104049;275;38985;-74
2023/08/28 05:55:39;;;;;;;4.80;2.50;;;;;;;20.06;87.59;99932.94;103994;276;38437;-74
2023/08/28 05:58:13;;;;;;;3.10;2.70;;;;;;;20.10;87.52;99936.70;104055;275;40157;-74
2023/08/28 06:00:47;;;;;;;3.30;2.50;;;;;;;20.13;87.52;99937.55;103993;275;38631;-73
2023/08/28 06:03:21;;;;;;;3.40;2.20;;;;;;;20.19;87.50;99930.63;103885;276;39543;-73
2023/08/28 06:05:56;;;;;;;2.60;2.40;;;;;;;20.26;87.48;99923.47;104040;276;38476;-73
2023/08/28 06:08:29;;;;;;;3.40;2.40;;;;;;;20.36;87.65;99916.21;104077;276;38687;-75
2023/08/28 06:11:04;;;;;;;3.50;2.90;;;;;;;20.54;88.80;99907.77;104026;276;40117;-74
2023/08/28 06:13:38;;;;;;;2.50;2.30;;;;;;;21.05;91.96;99909.45;103861;275;38406;-72
2023/08/28 06:16:12;;;;;;;2.90;2.70;;;;;;;21.80;91.78;99900.07;104037;275;38503;-72
2023/08/28 06:18:46;;;;;;;2.70;2.20;;;;;;;22.54;92.31;99893.66;103935;276;174607;-76
2023/08/28 06:21:20;;;;;;;2.40;2.10;;;;;;;23.12;88.34;99893.92;104043;276;39509;-74
2023/08/28 06:23:54;;;;;;;2.70;2.20;;;;;;;23.59;85.66;99898.02;104024;276;38321;-72
2023/08/28 06:26:28;;;;;;;3.10;2.70;;;;;;;23.94;81.79;99906.23;104066;276;38492;-73
2023/08/28 06:29:03;;;;;;;2.40;2.20;;;;;;;24.04;78.60;99917.02;104071;276;38288;-73
2023/08/28 06:31:38;;;;;;;2.50;2.30;;;;;;;24.06;77.55;99922.42;104010;275;38271;-73
2023/08/28 06:34:14;;;;;;;2.50;2.30;;;;;;;24.11;76.50;99926.06;104039;275;39412;-74
2023/08/28 06:36:49;;;;;;;2.30;2.10;;;;;;;24.10;75.33;99918.16;104084;276;38326;-74
2023/08/28 06:39:23;;;;;;;2.60;2.00;;;;;;;24.03;74.96;99908.70;104014;275;38390;-72
2023/08/28 06:41:57;;;;;;;3.10;2.20;;;;;;;24.00;74.18;99906.56;104011;276;39869;-72
2023/08/28 06:44:31;;;;;;;2.80;2.20;;;;;;;23.93;72.94;99914.17;104094;275;38313;-73
2023/08/28 06:47:09;;;;;;;3.80;2.20;;;;;;;23.85;72.87;99921.72;103959;275;39526;-75
2023/08/28 06:49:42;;;;;;;2.30;2.10;;;;;;;23.80;73.10;99920.51;104022;275;38816;-73
2023/08/28 06:52:16;;;;;;;3.10;2.60;;;;;;;23.77;73.04;99916.68;104089;275;39762;-75
2023/08/28 06:54:50;;;;;;;2.80;2.60;;;;;;;23.76;72.74;99915.77;104054;276;39091;-73
2023/08/28 06:57:24;;;;;;;2.90;2.50;;;;;;;23.72;72.30;99918.77;104053;276;38572;-74
2023/08/28 06:59:58;;;;;;;2.90;2.60;;;;;;;23.65;71.85;99919.44;104030;276;38825;-73
2023/08/28 07:02:32;;;;;;;3.20;2.90;;;;;;;23.66;72.04;99925.48;104052;275;38258;-73
2023/08/28 07:05:06;;;;;;;2.70;2.50;;;;;;;23.70;71.81;99925.21;103472;275;728914;-74
2023/08/28 07:07:40;;;;;;;3.60;3.10;;;;;;;23.75;71.13;99920.86;104071;275;38380;-75
2023/08/28 07:10:14;;;;;;;3.20;2.90;;;;;;;23.78;70.86;99918.92;104069;275;39931;-75
2023/08/28 07:12:48;;;;;;;3.60;3.10;;;;;;;23.86;70.97;99929.55;103853;276;40256;-73
2023/08/28 07:15:59;;;;;;;3.40;3.10;;;;;;;23.93;70.96;99933.55;104003;276;38796;-74
2023/08/28 07:18:33;;;;;;;3.50;3.10;;;;;;;24.10;70.89;99948.61;104077;275;38275;-74
2023/08/28 07:21:07;;;;;;;3.10;2.90;;;;;;;24.24;69.62;99948.62;104065;276;39875;-74
2023/08/28 07:23:41;;;;;;;5.20;3.50;;;;;;;24.43;68.87;99955.42;104080;275;38307;-74
2023/08/28 07:26:15;;;;;;;3.40;3.10;;;;;;;24.78;68.75;99959.16;104051;265;38300;-73
2023/08/28 07:28:49;;;;;;;3.20;3.00;;;;;;;25.14;67.88;99952.75;104050;276;38355;-75
2023/08/28 07:31:23;;;;;;;3.40;3.20;;;;;;;25.46;67.46;99944.83;104033;275;38364;-75
2023/08/28 07:33:59;;;;;;;3.20;2.90;;;;;;;25.69;64.92;99937.73;104027;264;39471;-74
2023/08/28 07:36:33;;;;;;;3.50;3.20;;;;;;;25.66;63.42;99945.30;103839;276;39752;-74
2023/08/28 07:39:07;;;;;;;3.40;3.10;;;;;;;25.62;63.15;99952.23;104108;275;39439;-74
2023/08/28 07:41:42;;;;;;;4.20;2.80;;;;;;;25.60;63.43;99954.75;104085;276;38220;-75
2023/08/28 07:44:16;;;;;;;4.20;2.90;;;;;;;25.64;63.68;99953.58;104077;275;39710;-73
2023/08/28 07:46:50;;;;;;;3.20;2.90;;;;;;;25.67;62.45;99953.01;103998;276;38283;-73
2023/08/28 07:49:23;;;;;;;3.20;3.00;;;;;;;25.69;62.06;99953.07;104049;276;38514;-75
2023/08/28 07:51:57;;;;;;;3.20;3.00;;;;;;;25.65;61.95;99945.06;104025;275;38856;-75
2023/08/28 07:54:31;;;;;;;6.60;3.70;;;;;;;25.54;61.36;99937.05;104070;275;38832;-74
2023/08/28 07:57:07;;;;;;;6.60;3.80;;;;;;;25.40;61.56;99932.38;103944;275;174312;-74
2023/08/28 07:59:41;;;;;;;4.40;3.10;;;;;;;25.43;62.38;99927.97;103838;277;39416;-75
2023/08/28 08:02:16;;;;;;;3.10;2.80;;;;;;;25.93;62.96;99929.05;104051;276;38963;-76
2023/08/28 08:04:51;;;;;;;3.60;2.70;;;;;;;26.68;61.89;99923.59;103850;276;174455;-75
2023/08/28 08:07:25;;;;;;;4.10;3.00;;;;;;;27.39;59.88;99917.76;103890;276;39622;-75
2023/08/28 08:09:59;;;;;;;3.80;2.60;;;;;;;27.67;58.08;99918.73;104013;276;38281;-73
2023/08/28 08:12:33;;;;;;;5.60;2.90;;;;;;;27.54;57.22;99916.77;104014;276;39803;-75
2023/08/28 08:15:09;;;;;;;2.70;2.50;;;;;;;27.33;56.96;99920.77;103831;276;38817;-74
2023/08/28 08:17:43;;;;;;;2.70;2.50;;;;;;;27.19;57.05;99918.13;104072;276;39423;-73
2023/08/28 08:20:17;;;;;;;4.20;2.80;;;;;;;27.15;56.55;99922.71;104043;276;38387;-74
2023/08/28 08:22:52;;;;;;;3.30;2.90;;;;;;;27.07;56.03;99920.14;103874;276;40610;-75
2023/08/28 08:25:25;;;;;;;3.20;2.60;;;;;;;26.88;55.44;99919.88;104037;276;40121;-73
2023/08/28 08:27:59;;;;;;;2.70;2.30;;;;;;;26.74;55.73;99925.68;104107;276;38552;-74
2023/08/28 08:30:33;;;;;;;2.40;2.20;;;;;;;26.98;56.52;99929.78;104020;276;38854;-73
2023/08/28 08:33:08;;;;;;;2.40;2.10;;;;;;;27.54;55.71;99928.04;104028;276;38724;-73
2023/08/28 08:35:42;;;;;;;3.20;2.40;;;;;;;27.79;54.26;99936.59;103881;276;176490;-73
2023/08/28 08:38:17;;;;;;;2.50;2.30;;;;;;;27.86;53.41;99928.77;104078;276;38489;-74
2023/08/28 08:40:52;;;;;;;3.10;2.50;;;;;;;28.16;53.52;99927.35;103972;276;40119;-76
2023/08/28 08:43:27;;;;;;;2.60;2.20;;;;;;;28.26;53.17;99934.46;103878;276;39991;-73
2023/08/28 08:46:05;;;;;;;3.20;2.30;;;;;;;28.76;53.36;99933.20;103880;278;40003;-74
2023/08/28 08:48:40;;;;;;;2.60;2.20;;;;;;;29.31;50.96;99918.46;103887;276;39749;-75
2023/08/28 08:51:15;;;;;;;3.20;2.20;;;;;;;29.31;49.15;99919.88;104043;276;39390;-75
2023/08/28 08:53:50;;;;;;;3.30;2.40;;;;;;;28.89;48.37;99932.50;103900;277;38703;-73
2023/08/28 08:56:24;;;;;;;4.10;2.00;;;;;;;28.52;49.40;99945.11;104022;276;38230;-73
2023/08/28 08:58:59;;;;;;;14.00;4.40;;;;;;;28.17;49.56;99944.83;104061;276;38677;-73
2023/08/28 09:01:32;;;;;;;5.40;3.20;;;;;;;28.03;51.38;99941.06;104025;276;38528;-74
2023/08/28 09:04:07;;;;;;;2.90;2.30;;;;;;;28.31;51.62;99934.79;104066;276;38268;-73
2023/08/28 09:06:41;;;;;;;4.00;2.70;;;;;;;28.47;50.71;99937.97;104038;276;38657;-73
2023/08/28 09:09:16;;;;;;;2.20;1.90;;;;;;;28.37;49.99;99940.46;104052;276;39552;-76
2023/08/28 09:11:50;;;;;;;3.30;2.30;;;;;;;28.43;50.41;99948.36;104076;276;38480;-75
2023/08/28 09:14:24;;;;;;;2.40;2.20;;;;;;;28.42;50.05;99947.37;103931;276;38515;-74
2023/08/28 09:16:58;;;;;;;3.90;2.50;;;;;;;28.29;50.02;99944.29;104041;276;38280;-75
2023/08/28 09:19:33;;;;;;;2.80;2.10;;;;;;;28.17;50.02;99948.33;104037;276;39229;-73
2023/08/28 09:22:08;;;;;;;3.20;2.60;;;;;;;28.10;50.44;99952.35;103996;276;38277;-73
2023/08/28 09:24:42;;;;;;;3.40;2.10;;;;;;;28.08;50.24;99950.86;104027;276;38359;-74
2023/08/28 09:27:18;;;;;;;2.40;2.20;;;;;;;27.98;50.14;99948.34;104077;276;38413;-75
2023/08/28 09:29:53;;;;;;;2.60;2.20;;;;;;;27.81;50.39;99953.61;103976;276;39622;-74
2023/08/28 09:32:30;;;;;;;2.70;2.30;;;;;;;27.62;50.68;99952.71;104063;276;39229;-75
2023/08/28 09:35:05;;;;;;;2.50;2.30;;;;;;;27.34;50.72;99962.42;103856;276;39614;-74
2023/08/28 09:37:39;;;;;;;2.40;2.20;;;;;;;27.06;50.94;99965.47;104030;275;38229;-75
2023/08/28 09:40:16;;;;;;;2.60;2.40;;;;;;;26.72;50.91;99960.24;104026;275;38604;-75
2023/08/28 09:42:50;;;;;;;2.60;2.40;;;;;;;26.35;51.74;99953.70;104003;276;38431;-73
2023/08/28 09:45:23;;;;;;;3.80;2.30;;;;;;;26.02;52.26;99946.65;104027;268;39799;-73
2023/08/28 09:47:58;;;;;;;3.10;2.80;;;;;;;25.67;53.08;99948.09;103970;276;175338;-74
2023/08/28 09:50:34;;;;;;;8.50;3.70;;;;;;;25.40;53.93;99961.56;104015;276;38235;-74
2023/08/28 09:53:13;;;;;;;3.40;2.80;;;;;;;25.17;54.67;99973.48;104031;276;38278;-75
2023/08/28 09:55:52;;;;;;;2.60;2.30;;;;;;;24.96;55.21;99976.67;104045;275;39489;-75
2023/08/28 09:58:28;;;;;;;2.60;2.30;;;;;;;24.73;55.04;99985.70;104052;276;38909;-75
2023/08/28 10:01:02;;;;;;;3.20;2.70;;;;;;;24.52;55.57;99989.11;104051;276;38941;-77
2023/08/28 10:03:39;;;;;;;3.50;2.90;;;;;;;24.35;56.17;99985.67;104068;276;39462;-75
2023/08/28 10:06:14;;;;;;;4.00;3.10;;;;;;;24.23;56.75;99981.83;104077;276;39939;-73
2023/08/28 10:08:49;;;;;;;3.00;2.70;;;;;;;24.18;57.14;99975.10;104020;276;39467;-74
2023/08/28 10:11:23;;;;;;;3.30;3.00;;;;;;;24.09;57.84;99973.89;103986;276;40327;-74
2023/08/28 10:13:57;;;;;;;3.40;2.60;;;;;;;24.13;58.37;99972.59;103827;276;40351;-73
2023/08/28 10:16:34;;;;;;;3.20;2.90;;;;;;;24.22;58.54;99973.66;104001;276;38899;-73
2023/08/28 10:19:16;;;;;;;3.10;2.80;;;;;;;24.33;58.75;99979.46;104069;276;38372;-75
2023/08/28 10:21:51;;;;;;;3.40;3.10;;;;;;;24.47;58.56;99976.77;104112;276;38265;-75
2023/08/28 10:24:25;;;;;;;3.50;3.10;;;;;;;24.75;58.40;99970.09;104065;276;38245;-74
2023/08/28 10:26:59;;;;;;;4.40;3.10;;;;;;;24.90;57.52;99973.41;104034;276;38896;-73
2023/08/28 10:29:34;;;;;;;3.70;3.00;;;;;;;24.93;57.51;99979.81;104030;276;38315;-73
2023/08/28 10:32:10;;;;;;;3.80;2.80;;;;;;;25.11;58.19;99993.70;103996;276;39127;-73
2023/08/28 10:34:45;;;;;;;3.10;2.90;;;;;;;25.32;57.51;100006.81;104005;276;40365;-74
2023/08/28 10:37:19;;;;;;;3.60;3.30;;;;;;;25.47;57.20;100012.93;104094;276;39528;-76
2023/08/28 10:39:56;;;;;;;3.70;2.90;;;;;;;25.56;56.56;100023.03;103861;275;38224;-75
2023/08/28 10:42:31;;;;;;;3.70;3.40;;;;;;;25.62;56.32;100021.51;104036;275;39404;-74
2023/08/28 10:45:08;;;;;;;4.70;3.10;;;;;;;25.66;55.56;100021.46;104023;276;38271;-74
2023/08/28 10:47:44;;;;;;;4.20;3.80;;;;;;;25.73;55.21;100017.77;104052;264;39489;-75
2023/08/28 10:50:18;;;;;;;5.10;3.40;;;;;;;25.79;55.04;100021.70;104045;276;39163;-75
2023/08/28 10:52:55;;;;;;;5.00;3.70;;;;;;;25.90;55.22;100022.08;104047;276;38554;-75
2023/08/28 10:55:29;;;;;;;4.00;3.30;;;;;;;26.13;55.26;100019.45;104022;276;38236;-73
2023/08/28 10:58:06;;;;;;;3.80;3.40;;;;;;;26.33;54.16;100016.73;104092;275;39663;-76
2023/08/28 11:00:40;;;;;;;4.20;3.80;;;;;;;26.50;54.23;100006.99;104039;275;38531;-76
2023/08/28 11:03:17;;;;;;;4.60;3.80;;;;;;;26.57;53.77;100010.02;104064;275;38565;-74
2023/08/28 11:05:51;;;;;;;5.40;3.60;;;;;;;26.62;53.00;100013.73;104039;275;38594;-74
2023/08/28 11:08:26;;;;;;;4.60;3.80;;;;;;;26.61;52.47;100017.52;103954;275;174521;-74
2023/08/28 11:11:17;;;;;;;4.30;3.80;;;;;;;26.63;52.61;100017.50;104026;275;39289;-74
2023/08/28 11:14:04;;;;;;;4.30;3.70;;;;;;;26.76;52.45;100025.86;104099;275;38253;-74
2023/08/28 11:16:42;;;;;;;7.40;3.40;;;;;;;26.79;52.18;100022.93;103796;278;39653;-73
2023/08/28 11:19:18;;;;;;;3.60;3.20;;;;;;;26.79;51.43;100029.73;104067;276;38287;-74
2023/08/28 11:21:53;;;;;;;4.70;3.60;;;;;;;26.75;50.82;100037.85;104012;275;38409;-73
2023/08/28 11:24:29;;;;;;;4.80;3.90;;;;;;;26.71;50.76;100032.29;103890;276;38503;-75
2023/08/28 11:27:04;;;;;;;4.10;3.70;;;;;;;26.73;50.62;100029.02;104043;275;39389;-74
2023/08/28 11:29:40;;;;;;;5.20;3.70;;;;;;;26.80;51.35;100032.45;103956;276;39817;-73
2023/08/28 11:32:14;;;;;;;4.00;3.50;;;;;;;26.82;51.57;100023.27;104069;275;38252;-76
2023/08/28 11:34:48;;;;;;;3.80;3.40;;;;;;;26.76;50.79;100024.96;104047;275;38227;-75
2023/08/28 11:37:35;;;;;;;5.20;3.60;;;;;;;26.55;50.19;100016.95;104036;275;38690;-75
2023/08/28 11:40:17;;;;;;;4.40;3.00;;;;;;;26.32;51.06;100006.04;103861;275;38233;-75
2023/08/28 11:43:06;;;;;;;3.60;3.30;;;;;;;26.16;50.73;99981.34;104078;275;39733;-74
2023/08/28 11:45:38;;;;;;;;;;;;;;;25.91;49.62;99965.68;104051;265;39698;-75
2023/08/28 11:48:12;;;;;;;3.40;3.10;;;;;;;25.58;49.63;99964.59;104084;275;40384;-73
2023/08/28 11:50:46;;;;;;;3.70;3.40;;;;;;;25.33;50.24;99958.23;104022;276;38299;-73
2023/08/28 11:53:36;;;;;;;4.50;3.50;;;;;;;25.18;50.51;99936.04;104010;275;39448;-74
2023/08/28 11:56:11;;;;;;;4.30;3.40;;;;;;;25.07;51.06;99928.64;103695;275;171332;-73
2023/08/28 11:58:45;;;;;;;6.90;4.00;;;;;;;25.00;51.10;99925.20;104049;275;38866;-74
2023/08/28 12:01:20;;;;;;;8.30;4.50;;;;;;;24.98;51.41;99933.66;104021;276;39465;-73
2023/08/28 12:03:55;;;;;;;5.30;3.40;;;;;;;25.03;51.77;99940.83;104083;276;38630;-74
2023/08/28 12:06:36;;;;;;;8.00;3.50;;;;;;;25.17;51.31;99948.77;103837;277;38809;-75
2023/08/28 12:09:14;;;;;;;7.00;3.60;;;;;;;25.21;50.99;99959.59;104052;276;38512;-74